Aegean Tiffany — SVAE9 — position and weather

sailwx.info

Track history (hours):
 
Tides and Currents Weather Stations Pressure Air Temp Water Temp Dewpoint Dewpoint Depression Visibility Wind Speed Wind Dir Waves Ship Positions

Aegean Tiffany

Last reported at 2017-Jan-17 18:33 UTC. Time now 2017-Jan-17 19:14 UTC.
Position N 38°02' E 023°31'.

Length 80 m; draft 4.6 m.

Type: Tanker. MMSI: 240870000.

Date/timePositionNaut miles runAvg speedWind from/ knotsBaromVisibWave heightAir tempDewpointWater temp
2017-Jan-17 18:33N 38°02' E 023°31'0 0.0
2017-Jan-17 17:33N 38°02' E 023°31'0 0.0
2017-Jan-17 16:33N 38°02' E 023°31'2 2.4
2017-Jan-17 15:33N 38°00' E 023°32'5 4.9
2017-Jan-17 14:33N 37°57' E 023°37'0 0.0
2017-Jan-17 13:33N 37°57' E 023°37'0 0.0
2017-Jan-17 12:33N 37°57' E 023°37'0 0.0
2017-Jan-17 11:33N 37°57' E 023°37'0 0.1
2017-Jan-17 10:33N 37°57' E 023°37'6 5.5
2017-Jan-17 09:33N 38°01' E 023°32'1 1.3
2017-Jan-17 08:34N 38°02' E 023°32'0 0.0
2017-Jan-17 07:33N 38°02' E 023°32'6 6.2
2017-Jan-17 06:33N 37°59' E 023°25'6 6.2
2017-Jan-17 05:33N 37°56' E 023°18'8 8.0
2017-Jan-17 04:33N 37°55' E 023°08'  
2017-Jan-12 23:33N 37°55' E 023°02'7 7.4
2017-Jan-12 22:33N 37°55' E 023°12'8 8.0
2017-Jan-12 21:34N 37°56' E 023°22'6 5.6
2017-Jan-12 20:33N 38°00' E 023°27'5 0.3
2017-Jan-12 06:25N 38°02' E 023°32'0 0.0
2017-Jan-12 05:33N 38°02' E 023°32'0 0.0
2017-Jan-12 04:33N 38°02' E 023°32'0 0.0
2017-Jan-12 03:33N 38°02' E 023°32'0 0.0
2017-Jan-12 02:33N 38°02' E 023°32'0 0.0
2017-Jan-12 01:33N 38°02' E 023°32'0 0.0
2017-Jan-12 00:34N 38°02' E 023°32'1 1.0
2017-Jan-11 23:33N 38°02' E 023°31'0 0.0
2017-Jan-11 22:33N 38°02' E 023°31'0 0.0
2017-Jan-11 21:33N 38°02' E 023°31'0 0.0
2017-Jan-11 20:34N 38°02' E 023°31'0 0.0
2017-Jan-11 19:33N 38°02' E 023°31'0 0.0
2017-Jan-11 18:34N 38°02' E 023°31'0 0.0
2017-Jan-11 17:34N 38°02' E 023°31'0 0.4
2017-Jan-11 16:33N 38°02' E 023°31'4 3.6
2017-Jan-11 15:33N 38°02' E 023°36'0 0.0
2017-Jan-11 14:34N 38°02' E 023°36'0 0.0
2017-Jan-11 13:33N 38°02' E 023°36'0 0.0
2017-Jan-11 12:33N 38°02' E 023°36'0 0.0
2017-Jan-11 11:34N 38°02' E 023°36'1 0.5
2017-Jan-11 10:33N 38°02' E 023°35'2 2.4
2017-Jan-11 09:33N 38°02' E 023°32'0 0.0
2017-Jan-11 08:34N 38°02' E 023°32'0 0.0
2017-Jan-11 07:33N 38°02' E 023°32'0 0.5
2017-Jan-11 06:33N 38°02' E 023°32'0 0.0
2017-Jan-11 05:33N 38°02' E 023°32'0 0.0
2017-Jan-11 04:33N 38°02' E 023°32'0 0.0
2017-Jan-11 03:34N 38°02' E 023°32'2 1.8
2017-Jan-11 02:34N 38°01' E 023°29'6 6.5
2017-Jan-11 01:34N 37°57' E 023°23'9 8.6
2017-Jan-11 00:34N 37°55' E 023°12'30 5.8
2017-Jan-10 19:25N 38°07' E 022°38'  
Track history (hours):
 
Tides and Currents Weather Stations Pressure Air Temp Water Temp Dewpoint Dewpoint Depression Visibility Wind Speed Wind Dir Waves Ship Positions

Aegean Tiffany

Last reported at 2017-Jan-17 18:33 UTC. Time now 2017-Jan-17 19:14 UTC.
Position N 38°02' E 023°31'.

Length 80 m; draft 4.6 m.

Type: Tanker. MMSI: 240870000.

Date/timePositionNaut miles runAvg speedWind from/ knotsBaromVisibWave heightAir tempDewpointWater temp
2017-Jan-17 18:33N 38°02' E 023°31'0 0.0
2017-Jan-17 17:33N 38°02' E 023°31'0 0.0
2017-Jan-17 16:33N 38°02' E 023°31'2 2.4
2017-Jan-17 15:33N 38°00' E 023°32'5 4.9
2017-Jan-17 14:33N 37°57' E 023°37'0 0.0
2017-Jan-17 13:33N 37°57' E 023°37'0 0.0
2017-Jan-17 12:33N 37°57' E 023°37'0 0.0
2017-Jan-17 11:33N 37°57' E 023°37'0 0.1
2017-Jan-17 10:33N 37°57' E 023°37'6 5.5
2017-Jan-17 09:33N 38°01' E 023°32'1 1.3
2017-Jan-17 08:34N 38°02' E 023°32'0 0.0
2017-Jan-17 07:33N 38°02' E 023°32'6 6.2
2017-Jan-17 06:33N 37°59' E 023°25'6 6.2
2017-Jan-17 05:33N 37°56' E 023°18'8 8.0
2017-Jan-17 04:33N 37°55' E 023°08'  
2017-Jan-12 23:33N 37°55' E 023°02'7 7.4
2017-Jan-12 22:33N 37°55' E 023°12'8 8.0
2017-Jan-12 21:34N 37°56' E 023°22'6 5.6
2017-Jan-12 20:33N 38°00' E 023°27'5 0.3
2017-Jan-12 06:25N 38°02' E 023°32'0 0.0
2017-Jan-12 05:33N 38°02' E 023°32'0 0.0
2017-Jan-12 04:33N 38°02' E 023°32'0 0.0
2017-Jan-12 03:33N 38°02' E 023°32'0 0.0
2017-Jan-12 02:33N 38°02' E 023°32'0 0.0
2017-Jan-12 01:33N 38°02' E 023°32'0 0.0
2017-Jan-12 00:34N 38°02' E 023°32'1 1.0
2017-Jan-11 23:33N 38°02' E 023°31'0 0.0
2017-Jan-11 22:33N 38°02' E 023°31'0 0.0
2017-Jan-11 21:33N 38°02' E 023°31'0 0.0
2017-Jan-11 20:34N 38°02' E 023°31'0 0.0
2017-Jan-11 19:33N 38°02' E 023°31'0 0.0
2017-Jan-11 18:34N 38°02' E 023°31'0 0.0
2017-Jan-11 17:34N 38°02' E 023°31'0 0.4
2017-Jan-11 16:33N 38°02' E 023°31'4 3.6
2017-Jan-11 15:33N 38°02' E 023°36'0 0.0
2017-Jan-11 14:34N 38°02' E 023°36'0 0.0
2017-Jan-11 13:33N 38°02' E 023°36'0 0.0
2017-Jan-11 12:33N 38°02' E 023°36'0 0.0
2017-Jan-11 11:34N 38°02' E 023°36'1 0.5
2017-Jan-11 10:33N 38°02' E 023°35'2 2.4
2017-Jan-11 09:33N 38°02' E 023°32'0 0.0
2017-Jan-11 08:34N 38°02' E 023°32'0 0.0
2017-Jan-11 07:33N 38°02' E 023°32'0 0.5
2017-Jan-11 06:33N 38°02' E 023°32'0 0.0
2017-Jan-11 05:33N 38°02' E 023°32'0 0.0
2017-Jan-11 04:33N 38°02' E 023°32'0 0.0
2017-Jan-11 03:34N 38°02' E 023°32'2 1.8
2017-Jan-11 02:34N 38°01' E 023°29'6 6.5
2017-Jan-11 01:34N 37°57' E 023°23'9 8.6
2017-Jan-11 00:34N 37°55' E 023°12'30 5.8
2017-Jan-10 19:25N 38°07' E 022°38'  

Dump ship's entire track history